sensor_id;sensor_type;location;lat;lon;timestamp;temperature;humidity
45843;DHT22;31563;51.744;8.252;2023-07-28T00:01:43;19.60;94.00
45843;DHT22;31563;51.744;8.252;2023-07-28T00:04:10;19.60;93.90
45843;DHT22;31563;51.744;8.252;2023-07-28T00:06:38;19.50;93.90
45843;DHT22;31563;51.744;8.252;2023-07-28T00:09:07;19.60;93.90
45843;DHT22;31563;51.744;8.252;2023-07-28T00:11:34;19.60;94.10
45843;DHT22;31563;51.744;8.252;2023-07-28T00:14:02;19.60;93.70
45843;DHT22;31563;51.744;8.252;2023-07-28T00:16:31;19.60;93.90
45843;DHT22;31563;51.744;8.252;2023-07-28T00:19:00;19.60;93.90
45843;DHT22;31563;51.744;8.252;2023-07-28T00:21:27;19.60;94.00
45843;DHT22;31563;51.744;8.252;2023-07-28T00:23:55;19.60;94.10
45843;DHT22;31563;51.744;8.252;2023-07-28T00:26:23;19.60;94.20
45843;DHT22;31563;51.744;8.252;2023-07-28T00:28:51;19.50;94.10
45843;DHT22;31563;51.744;8.252;2023-07-28T00:31:18;19.50;94.20
45843;DHT22;31563;51.744;8.252;2023-07-28T00:33:47;19.50;94.30
45843;DHT22;31563;51.744;8.252;2023-07-28T00:36:15;19.60;94.20
45843;DHT22;31563;51.744;8.252;2023-07-28T00:38:43;19.50;94.20
45843;DHT22;31563;51.744;8.252;2023-07-28T00:41:10;19.50;94.30
45843;DHT22;31563;51.744;8.252;2023-07-28T00:43:38;19.50;94.20
45843;DHT22;31563;51.744;8.252;2023-07-28T00:46:06;19.50;94.40
45843;DHT22;31563;51.744;8.252;2023-07-28T00:48:34;19.50;94.50
45843;DHT22;31563;51.744;8.252;2023-07-28T00:51:03;19.50;94.50
45843;DHT22;31563;51.744;8.252;2023-07-28T00:53:31;19.50;94.30
45843;DHT22;31563;51.744;8.252;2023-07-28T00:56:00;19.50;94.40
45843;DHT22;31563;51.744;8.252;2023-07-28T00:58:28;19.50;94.30
45843;DHT22;31563;51.744;8.252;2023-07-28T01:00:55;19.40;94.70
45843;DHT22;31563;51.744;8.252;2023-07-28T01:03:23;19.40;94.70
45843;DHT22;31563;51.744;8.252;2023-07-28T01:05:54;19.40;94.80
45843;DHT22;31563;51.744;8.252;2023-07-28T01:08:25;19.40;94.70
45843;DHT22;31563;51.744;8.252;2023-07-28T01:10:57;19.40;95.10
45843;DHT22;31563;51.744;8.252;2023-07-28T01:13:40;19.40;94.90
45843;DHT22;31563;51.744;8.252;2023-07-28T01:16:08;19.40;94.70
45843;DHT22;31563;51.744;8.252;2023-07-28T01:18:35;19.40;94.70
45843;DHT22;31563;51.744;8.252;2023-07-28T01:21:04;19.40;94.70
45843;DHT22;31563;51.744;8.252;2023-07-28T01:23:37;19.40;95.00
45843;DHT22;31563;51.744;8.252;2023-07-28T01:26:08;19.40;94.90
45843;DHT22;31563;51.744;8.252;2023-07-28T01:28:37;19.40;94.80
45843;DHT22;31563;51.744;8.252;2023-07-28T01:31:06;19.40;94.60
45843;DHT22;31563;51.744;8.252;2023-07-28T01:33:35;19.40;94.60
45843;DHT22;31563;51.744;8.252;2023-07-28T01:36:02;19.40;94.70
45843;DHT22;31563;51.744;8.252;2023-07-28T01:38:30;19.40;94.70
45843;DHT22;31563;51.744;8.252;2023-07-28T01:40:58;19.40;94.80
45843;DHT22;31563;51.744;8.252;2023-07-28T01:43:26;19.40;94.90
45843;DHT22;31563;51.744;8.252;2023-07-28T01:45:55;19.40;94.80
45843;DHT22;31563;51.744;8.252;2023-07-28T01:48:22;19.40;94.70
45843;DHT22;31563;51.744;8.252;2023-07-28T01:50:50;19.40;94.70
45843;DHT22;31563;51.744;8.252;2023-07-28T01:53:17;19.40;94.70
45843;DHT22;31563;51.744;8.252;2023-07-28T01:55:45;19.40;94.80
45843;DHT22;31563;51.744;8.252;2023-07-28T01:58:13;19.40;94.90
45843;DHT22;31563;51.744;8.252;2023-07-28T02:00:40;19.40;94.90
45843;DHT22;31563;51.744;8.252;2023-07-28T02:03:09;19.40;94.90
45843;DHT22;31563;51.744;8.252;2023-07-28T02:05:37;19.30;95.00
45843;DHT22;31563;51.744;8.252;2023-07-28T02:08:05;19.30;95.00
45843;DHT22;31563;51.744;8.252;2023-07-28T02:10:33;19.40;95.00
45843;DHT22;31563;51.744;8.252;2023-07-28T02:13:00;19.30;94.90
45843;DHT22;31563;51.744;8.252;2023-07-28T02:15:28;19.30;95.00
45843;DHT22;31563;51.744;8.252;2023-07-28T02:17:56;19.30;95.00
45843;DHT22;31563;51.744;8.252;2023-07-28T02:20:25;19.40;95.10
45843;DHT22;31563;51.744;8.252;2023-07-28T02:22:53;19.30;95.20
45843;DHT22;31563;51.744;8.252;2023-07-28T02:25:21;19.30;95.20
45843;DHT22;31563;51.744;8.252;2023-07-28T02:27:48;19.30;95.10
45843;DHT22;31563;51.744;8.252;2023-07-28T02:30:16;19.30;95.30
45843;DHT22;31563;51.744;8.252;2023-07-28T02:32:44;19.40;95.40
45843;DHT22;31563;51.744;8.252;2023-07-28T02:35:11;19.30;95.30
45843;DHT22;31563;51.744;8.252;2023-07-28T02:37:40;19.30;95.50
45843;DHT22;31563;51.744;8.252;2023-07-28T02:40:09;19.30;95.30
45843;DHT22;31563;51.744;8.252;2023-07-28T02:42:37;19.30;95.30
45843;DHT22;31563;51.744;8.252;2023-07-28T02:45:05;19.30;95.30
45843;DHT22;31563;51.744;8.252;2023-07-28T02:47:33;19.30;95.40
45843;DHT22;31563;51.744;8.252;2023-07-28T02:50:00;19.30;95.40
45843;DHT22;31563;51.744;8.252;2023-07-28T02:52:28;19.30;95.60
45843;DHT22;31563;51.744;8.252;2023-07-28T02:54:57;19.30;95.60
45843;DHT22;31563;51.744;8.252;2023-07-28T02:57:25;19.30;95.50
45843;DHT22;31563;51.744;8.252;2023-07-28T02:59:52;19.30;95.50
45843;DHT22;31563;51.744;8.252;2023-07-28T03:02:20;19.30;95.50
45843;DHT22;31563;51.744;8.252;2023-07-28T03:04:48;19.30;95.40
45843;DHT22;31563;51.744;8.252;2023-07-28T03:07:16;19.30;95.50
45843;DHT22;31563;51.744;8.252;2023-07-28T03:09:43;19.30;95.40
45843;DHT22;31563;51.744;8.252;2023-07-28T03:12:12;19.30;95.60
45843;DHT22;31563;51.744;8.252;2023-07-28T03:14:40;19.30;95.40
45843;DHT22;31563;51.744;8.252;2023-07-28T03:17:08;19.30;95.50
45843;DHT22;31563;51.744;8.252;2023-07-28T03:19:35;19.30;95.70
45843;DHT22;31563;51.744;8.252;2023-07-28T03:22:03;19.30;95.60
45843;DHT22;31563;51.744;8.252;2023-07-28T03:24:31;19.30;95.70
45843;DHT22;31563;51.744;8.252;2023-07-28T03:26:59;19.30;95.70
45843;DHT22;31563;51.744;8.252;2023-07-28T03:29:27;19.30;95.60
45843;DHT22;31563;51.744;8.252;2023-07-28T03:31:55;19.30;95.60
45843;DHT22;31563;51.744;8.252;2023-07-28T03:34:23;19.30;95.50
45843;DHT22;31563;51.744;8.252;2023-07-28T03:36:51;19.30;95.60
45843;DHT22;31563;51.744;8.252;2023-07-28T03:39:18;19.20;95.80
45843;DHT22;31563;51.744;8.252;2023-07-28T03:41:46;19.20;95.90
45843;DHT22;31563;51.744;8.252;2023-07-28T03:44:14;19.30;95.80
45843;DHT22;31563;51.744;8.252;2023-07-28T03:46:44;19.30;95.80
45843;DHT22;31563;51.744;8.252;2023-07-28T03:49:11;19.30;96.00
45843;DHT22;31563;51.744;8.252;2023-07-28T03:51:39;19.30;96.00
45843;DHT22;31563;51.744;8.252;2023-07-28T03:54:07;19.30;95.80
45843;DHT22;31563;51.744;8.252;2023-07-28T03:56:34;19.30;95.90
45843;DHT22;31563;51.744;8.252;2023-07-28T03:59:03;19.30;95.90
45843;DHT22;31563;51.744;8.252;2023-07-28T04:01:31;19.30;95.90
45843;DHT22;31563;51.744;8.252;2023-07-28T04:04:00;19.30;96.10
45843;DHT22;31563;51.744;8.252;2023-07-28T04:06:40;19.30;96.00
45843;DHT22;31563;51.744;8.252;2023-07-28T04:09:08;19.30;96.10
45843;DHT22;31563;51.744;8.252;2023-07-28T04:11:36;19.30;96.00
45843;DHT22;31563;51.744;8.252;2023-07-28T04:14:04;19.30;95.90
45843;DHT22;31563;51.744;8.252;2023-07-28T04:16:32;19.30;96.00
45843;DHT22;31563;51.744;8.252;2023-07-28T04:19:01;19.30;95.80
45843;DHT22;31563;51.744;8.252;2023-07-28T04:21:29;19.30;95.90
45843;DHT22;31563;51.744;8.252;2023-07-28T04:23:57;19.30;96.00
45843;DHT22;31563;51.744;8.252;2023-07-28T04:26:25;19.30;95.80
45843;DHT22;31563;51.744;8.252;2023-07-28T04:28:52;19.50;95.80
45843;DHT22;31563;51.744;8.252;2023-07-28T04:31:20;19.60;95.20
45843;DHT22;31563;51.744;8.252;2023-07-28T04:33:48;19.70;94.60
45843;DHT22;31563;51.744;8.252;2023-07-28T04:36:17;19.70;94.60
45843;DHT22;31563;51.744;8.252;2023-07-28T04:38:44;19.70;94.40
45843;DHT22;31563;51.744;8.252;2023-07-28T04:41:12;19.70;94.40
45843;DHT22;31563;51.744;8.252;2023-07-28T04:43:40;19.70;94.30
45843;DHT22;31563;51.744;8.252;2023-07-28T04:46:07;19.70;94.40
45843;DHT22;31563;51.744;8.252;2023-07-28T04:48:35;19.80;94.20
45843;DHT22;31563;51.744;8.252;2023-07-28T04:51:03;19.70;94.10
45843;DHT22;31563;51.744;8.252;2023-07-28T04:53:32;19.80;94.00
45843;DHT22;31563;51.744;8.252;2023-07-28T04:56:00;19.80;94.10
45843;DHT22;31563;51.744;8.252;2023-07-28T04:58:29;19.90;93.80
45843;DHT22;31563;51.744;8.252;2023-07-28T05:00:57;19.90;93.70
45843;DHT22;31563;51.744;8.252;2023-07-28T05:03:25;19.90;93.60
45843;DHT22;31563;51.744;8.252;2023-07-28T05:05:52;19.90;93.40
45843;DHT22;31563;51.744;8.252;2023-07-28T05:08:20;20.00;93.50
45843;DHT22;31563;51.744;8.252;2023-07-28T05:10:49;20.00;93.30
45843;DHT22;31563;51.744;8.252;2023-07-28T05:13:17;20.00;93.10
45843;DHT22;31563;51.744;8.252;2023-07-28T05:15:44;20.10;92.80
45843;DHT22;31563;51.744;8.252;2023-07-28T05:18:12;20.10;92.80
45843;DHT22;31563;51.744;8.252;2023-07-28T05:20:40;20.00;93.10
45843;DHT22;31563;51.744;8.252;2023-07-28T05:23:07;19.90;93.30
45843;DHT22;31563;51.744;8.252;2023-07-28T05:25:35;19.90;93.30
45843;DHT22;31563;51.744;8.252;2023-07-28T05:28:04;19.90;93.70
45843;DHT22;31563;51.744;8.252;2023-07-28T05:30:32;19.90;94.10
45843;DHT22;31563;51.744;8.252;2023-07-28T05:33:00;19.90;94.20
45843;DHT22;31563;51.744;8.252;2023-07-28T05:35:27;19.90;94.20
45843;DHT22;31563;51.744;8.252;2023-07-28T05:37:55;20.00;94.00
45843;DHT22;31563;51.744;8.252;2023-07-28T05:40:23;20.00;94.20
45843;DHT22;31563;51.744;8.252;2023-07-28T05:42:51;19.90;94.40
45843;DHT22;31563;51.744;8.252;2023-07-28T05:45:20;19.90;94.80
45843;DHT22;31563;51.744;8.252;2023-07-28T05:47:47;19.80;95.00
45843;DHT22;31563;51.744;8.252;2023-07-28T05:50:15;19.90;94.90
45843;DHT22;31563;51.744;8.252;2023-07-28T05:52:43;20.00;94.60
45843;DHT22;31563;51.744;8.252;2023-07-28T05:55:10;19.90;94.80
45843;DHT22;31563;51.744;8.252;2023-07-28T05:57:38;20.00;94.40
45843;DHT22;31563;51.744;8.252;2023-07-28T06:00:06;20.10;94.20
45843;DHT22;31563;51.744;8.252;2023-07-28T06:02:37;20.10;94.20
45843;DHT22;31563;51.744;8.252;2023-07-28T06:05:06;20.30;93.40
45843;DHT22;31563;51.744;8.252;2023-07-28T06:07:33;20.30;93.40
45843;DHT22;31563;51.744;8.252;2023-07-28T06:10:01;20.50;93.10
45843;DHT22;31563;51.744;8.252;2023-07-28T06:12:29;20.60;92.60
45843;DHT22;31563;51.744;8.252;2023-07-28T06:14:57;20.50;92.70
45843;DHT22;31563;51.744;8.252;2023-07-28T06:17:24;20.30;93.40
45843;DHT22;31563;51.744;8.252;2023-07-28T06:19:56;20.30;93.70
45843;DHT22;31563;51.744;8.252;2023-07-28T06:22:24;20.20;93.60
45843;DHT22;31563;51.744;8.252;2023-07-28T06:24:52;20.20;93.80
45843;DHT22;31563;51.744;8.252;2023-07-28T06:27:19;20.20;93.80
45843;DHT22;31563;51.744;8.252;2023-07-28T06:29:47;20.20;93.90
45843;DHT22;31563;51.744;8.252;2023-07-28T06:32:15;20.10;94.30
45843;DHT22;31563;51.744;8.252;2023-07-28T06:34:43;20.00;94.80
45843;DHT22;31563;51.744;8.252;2023-07-28T06:37:12;19.90;95.00
45843;DHT22;31563;51.744;8.252;2023-07-28T06:39:39;19.90;95.30
45843;DHT22;31563;51.744;8.252;2023-07-28T06:42:07;20.00;94.90
45843;DHT22;31563;51.744;8.252;2023-07-28T06:44:35;20.10;94.60
45843;DHT22;31563;51.744;8.252;2023-07-28T06:47:03;20.10;94.20
45843;DHT22;31563;51.744;8.252;2023-07-28T06:49:30;20.20;93.90
45843;DHT22;31563;51.744;8.252;2023-07-28T06:51:58;20.40;93.70
45843;DHT22;31563;51.744;8.252;2023-07-28T06:54:27;20.50;93.30
45843;DHT22;31563;51.744;8.252;2023-07-28T06:56:55;20.60;93.00
45843;DHT22;31563;51.744;8.252;2023-07-28T06:59:23;20.80;92.00
45843;DHT22;31563;51.744;8.252;2023-07-28T07:01:50;20.80;92.10
45843;DHT22;31563;51.744;8.252;2023-07-28T07:04:18;20.90;91.80
45843;DHT22;31563;51.744;8.252;2023-07-28T07:06:46;20.90;91.50
45843;DHT22;31563;51.744;8.252;2023-07-28T07:09:14;20.80;92.00
45843;DHT22;31563;51.744;8.252;2023-07-28T07:11:43;20.80;92.10
45843;DHT22;31563;51.744;8.252;2023-07-28T07:14:11;20.90;92.10
45843;DHT22;31563;51.744;8.252;2023-07-28T07:16:38;21.10;91.40
45843;DHT22;31563;51.744;8.252;2023-07-28T07:19:06;21.30;91.10
45843;DHT22;31563;51.744;8.252;2023-07-28T07:21:35;21.40;90.70
45843;DHT22;31563;51.744;8.252;2023-07-28T07:24:03;21.50;90.30
45843;DHT22;31563;51.744;8.252;2023-07-28T07:26:31;21.50;90.10
45843;DHT22;31563;51.744;8.252;2023-07-28T07:29:00;21.40;90.10
45843;DHT22;31563;51.744;8.252;2023-07-28T07:31:29;21.30;90.40
45843;DHT22;31563;51.744;8.252;2023-07-28T07:33:57;21.30;90.30
45843;DHT22;31563;51.744;8.252;2023-07-28T07:36:24;21.30;90.30
45843;DHT22;31563;51.744;8.252;2023-07-28T07:38:52;21.20;90.30
45843;DHT22;31563;51.744;8.252;2023-07-28T07:41:20;21.20;90.30
45843;DHT22;31563;51.744;8.252;2023-07-28T07:43:49;21.30;90.30
45843;DHT22;31563;51.744;8.252;2023-07-28T07:46:19;21.30;90.40
45843;DHT22;31563;51.744;8.252;2023-07-28T07:48:47;21.20;90.50
45843;DHT22;31563;51.744;8.252;2023-07-28T07:51:14;21.30;90.40
45843;DHT22;31563;51.744;8.252;2023-07-28T07:53:42;21.30;90.10
45843;DHT22;31563;51.744;8.252;2023-07-28T07:56:10;21.30;90.10
45843;DHT22;31563;51.744;8.252;2023-07-28T07:58:38;21.30;90.10
45843;DHT22;31563;51.744;8.252;2023-07-28T08:01:06;21.40;90.10
45843;DHT22;31563;51.744;8.252;2023-07-28T08:03:35;21.20;90.40
45843;DHT22;31563;51.744;8.252;2023-07-28T08:06:04;21.20;90.70
45843;DHT22;31563;51.744;8.252;2023-07-28T08:08:32;21.10;90.70
45843;DHT22;31563;51.744;8.252;2023-07-28T08:10:59;21.10;90.30
45843;DHT22;31563;51.744;8.252;2023-07-28T08:13:27;21.10;90.60
45843;DHT22;31563;51.744;8.252;2023-07-28T08:15:55;21.10;90.50
45843;DHT22;31563;51.744;8.252;2023-07-28T08:18:23;21.20;90.30
45843;DHT22;31563;51.744;8.252;2023-07-28T08:20:52;21.20;90.30
45843;DHT22;31563;51.744;8.252;2023-07-28T08:23:20;21.30;90.30
45843;DHT22;31563;51.744;8.252;2023-07-28T08:25:47;21.20;90.30
45843;DHT22;31563;51.744;8.252;2023-07-28T08:28:15;21.30;90.40
45843;DHT22;31563;51.744;8.252;2023-07-28T08:30:43;21.80;89.20
45843;DHT22;31563;51.744;8.252;2023-07-28T08:33:11;22.00;87.60
45843;DHT22;31563;51.744;8.252;2023-07-28T08:35:38;22.30;86.50
45843;DHT22;31563;51.744;8.252;2023-07-28T08:38:08;22.40;85.50
45843;DHT22;31563;51.744;8.252;2023-07-28T08:40:36;22.70;84.20
45843;DHT22;31563;51.744;8.252;2023-07-28T08:43:04;22.80;83.80
45843;DHT22;31563;51.744;8.252;2023-07-28T08:45:32;22.90;83.30
45843;DHT22;31563;51.744;8.252;2023-07-28T08:48:00;22.90;82.70
45843;DHT22;31563;51.744;8.252;2023-07-28T08:50:28;22.90;82.90
45843;DHT22;31563;51.744;8.252;2023-07-28T08:52:56;22.80;83.20
45843;DHT22;31563;51.744;8.252;2023-07-28T08:55:25;22.70;83.70
45843;DHT22;31563;51.744;8.252;2023-07-28T08:57:52;22.60;83.70
45843;DHT22;31563;51.744;8.252;2023-07-28T09:00:20;22.60;84.20
45843;DHT22;31563;51.744;8.252;2023-07-28T09:02:49;22.50;84.50
45843;DHT22;31563;51.744;8.252;2023-07-28T09:05:18;22.50;84.50
45843;DHT22;31563;51.744;8.252;2023-07-28T09:07:46;22.50;84.60
45843;DHT22;31563;51.744;8.252;2023-07-28T09:10:14;22.70;84.30
45843;DHT22;31563;51.744;8.252;2023-07-28T09:12:48;22.80;83.10
45843;DHT22;31563;51.744;8.252;2023-07-28T09:15:16;23.00;83.00
45843;DHT22;31563;51.744;8.252;2023-07-28T09:17:44;23.20;82.40
45843;DHT22;31563;51.744;8.252;2023-07-28T09:20:12;23.70;80.80
45843;DHT22;31563;51.744;8.252;2023-07-28T09:22:41;24.70;77.50
45843;DHT22;31563;51.744;8.252;2023-07-28T09:25:12;25.40;75.00
45843;DHT22;31563;51.744;8.252;2023-07-28T09:27:41;25.20;73.30
45843;DHT22;31563;51.744;8.252;2023-07-28T09:30:17;24.90;73.70
45843;DHT22;31563;51.744;8.252;2023-07-28T09:32:46;25.10;73.30
45843;DHT22;31563;51.744;8.252;2023-07-28T09:35:14;25.30;72.70
45843;DHT22;31563;51.744;8.252;2023-07-28T09:37:43;25.50;71.60
45843;DHT22;31563;51.744;8.252;2023-07-28T09:40:12;25.80;70.40
45843;DHT22;31563;51.744;8.252;2023-07-28T09:42:40;25.60;70.60
45843;DHT22;31563;51.744;8.252;2023-07-28T09:45:08;25.20;71.30
45843;DHT22;31563;51.744;8.252;2023-07-28T09:47:54;24.90;72.80
45843;DHT22;31563;51.744;8.252;2023-07-28T09:50:23;25.00;73.30
45843;DHT22;31563;51.744;8.252;2023-07-28T09:52:53;25.60;72.50
45843;DHT22;31563;51.744;8.252;2023-07-28T09:55:21;25.70;70.20
45843;DHT22;31563;51.744;8.252;2023-07-28T09:57:50;25.50;70.90
45843;DHT22;31563;51.744;8.252;2023-07-28T10:00:20;25.50;71.00
45843;DHT22;31563;51.744;8.252;2023-07-28T10:02:49;25.20;70.90
45843;DHT22;31563;51.744;8.252;2023-07-28T10:05:18;24.90;72.00
45843;DHT22;31563;51.744;8.252;2023-07-28T10:07:48;24.80;72.50
45843;DHT22;31563;51.744;8.252;2023-07-28T10:10:15;25.00;72.20
45843;DHT22;31563;51.744;8.252;2023-07-28T10:12:45;25.10;72.30
45843;DHT22;31563;51.744;8.252;2023-07-28T10:15:14;25.00;71.50
45843;DHT22;31563;51.744;8.252;2023-07-28T10:17:43;24.90;72.00
45843;DHT22;31563;51.744;8.252;2023-07-28T10:20:28;25.00;71.70
45843;DHT22;31563;51.744;8.252;2023-07-28T10:23:06;25.20;71.50
45843;DHT22;31563;51.744;8.252;2023-07-28T10:25:35;25.40;71.50
45843;DHT22;31563;51.744;8.252;2023-07-28T10:28:04;25.30;71.40
45843;DHT22;31563;51.744;8.252;2023-07-28T10:30:36;25.50;71.30
45843;DHT22;31563;51.744;8.252;2023-07-28T10:33:04;26.20;70.30
45843;DHT22;31563;51.744;8.252;2023-07-28T10:35:34;26.10;68.40
45843;DHT22;31563;51.744;8.252;2023-07-28T10:40:49;28.10;65.00
45843;DHT22;31563;51.744;8.252;2023-07-28T10:43:18;29.70;62.80
45843;DHT22;31563;51.744;8.252;2023-07-28T10:45:45;31.00;56.10
45843;DHT22;31563;51.744;8.252;2023-07-28T10:48:13;30.70;55.20
45843;DHT22;31563;51.744;8.252;2023-07-28T10:50:42;29.60;56.40
45843;DHT22;31563;51.744;8.252;2023-07-28T10:53:11;28.50;60.00
45843;DHT22;31563;51.744;8.252;2023-07-28T10:55:38;29.00;61.60
45843;DHT22;31563;51.744;8.252;2023-07-28T10:58:06;30.60;55.80
45843;DHT22;31563;51.744;8.252;2023-07-28T11:00:34;32.50;52.20
45843;DHT22;31563;51.744;8.252;2023-07-28T11:03:02;34.60;49.20
45843;DHT22;31563;51.744;8.252;2023-07-28T11:05:30;35.70;46.90
45843;DHT22;31563;51.744;8.252;2023-07-28T11:08:00;34.50;48.20
45843;DHT22;31563;51.744;8.252;2023-07-28T11:10:28;36.00;45.70
45843;DHT22;31563;51.744;8.252;2023-07-28T11:12:57;35.60;44.70
45843;DHT22;31563;51.744;8.252;2023-07-28T11:15:28;35.40;46.20
45843;DHT22;31563;51.744;8.252;2023-07-28T11:17:56;34.90;45.70
45843;DHT22;31563;51.744;8.252;2023-07-28T11:20:24;35.00;47.00
45843;DHT22;31563;51.744;8.252;2023-07-28T11:22:53;34.90;47.60
45843;DHT22;31563;51.744;8.252;2023-07-28T11:25:22;34.80;45.00
45843;DHT22;31563;51.744;8.252;2023-07-28T11:27:50;34.80;47.00
45843;DHT22;31563;51.744;8.252;2023-07-28T11:30:19;35.00;45.40
45843;DHT22;31563;51.744;8.252;2023-07-28T11:32:47;33.40;46.10
45843;DHT22;31563;51.744;8.252;2023-07-28T11:35:16;32.00;49.60
45843;DHT22;31563;51.744;8.252;2023-07-28T11:37:45;32.70;51.50
45843;DHT22;31563;51.744;8.252;2023-07-28T11:40:14;34.70;47.20
45843;DHT22;31563;51.744;8.252;2023-07-28T11:42:44;34.30;44.40
45843;DHT22;31563;51.744;8.252;2023-07-28T11:45:13;33.40;45.90
45843;DHT22;31563;51.744;8.252;2023-07-28T11:47:50;35.10;47.00
45843;DHT22;31563;51.744;8.252;2023-07-28T11:50:21;37.80;41.30
45843;DHT22;31563;51.744;8.252;2023-07-28T11:52:49;37.80;41.10
45843;DHT22;31563;51.744;8.252;2023-07-28T11:55:17;37.50;41.10
45843;DHT22;31563;51.744;8.252;2023-07-28T11:57:47;38.20;39.40
45843;DHT22;31563;51.744;8.252;2023-07-28T12:00:15;38.10;38.10
45843;DHT22;31563;51.744;8.252;2023-07-28T12:02:44;37.20;38.90
45843;DHT22;31563;51.744;8.252;2023-07-28T12:05:13;38.20;40.00
45843;DHT22;31563;51.744;8.252;2023-07-28T12:07:47;36.90;40.30
45843;DHT22;31563;51.744;8.252;2023-07-28T12:10:14;35.40;42.30
45843;DHT22;31563;51.744;8.252;2023-07-28T12:13:05;36.00;42.80
45843;DHT22;31563;51.744;8.252;2023-07-28T12:15:39;33.60;44.40
45843;DHT22;31563;51.744;8.252;2023-07-28T12:18:11;31.90;46.80
45843;DHT22;31563;51.744;8.252;2023-07-28T12:20:42;30.40;50.60
45843;DHT22;31563;51.744;8.252;2023-07-28T12:23:13;29.60;51.90
45843;DHT22;31563;51.744;8.252;2023-07-28T12:25:44;29.00;53.70
45843;DHT22;31563;51.744;8.252;2023-07-28T12:28:14;28.70;54.80
45843;DHT22;31563;51.744;8.252;2023-07-28T12:30:46;28.60;55.40
45843;DHT22;31563;51.744;8.252;2023-07-28T12:33:15;29.00;55.50
45843;DHT22;31563;51.744;8.252;2023-07-28T12:35:46;31.20;51.70
45843;DHT22;31563;51.744;8.252;2023-07-28T12:38:16;35.50;46.30
45843;DHT22;31563;51.744;8.252;2023-07-28T12:40:46;38.00;41.40
45843;DHT22;31563;51.744;8.252;2023-07-28T12:43:18;39.80;38.30
45843;DHT22;31563;51.744;8.252;2023-07-28T12:45:49;40.40;37.40
45843;DHT22;31563;51.744;8.252;2023-07-28T12:48:20;40.50;36.30
45843;DHT22;31563;51.744;8.252;2023-07-28T12:50:47;39.20;36.30
45843;DHT22;31563;51.744;8.252;2023-07-28T12:53:16;39.90;38.50
45843;DHT22;31563;51.744;8.252;2023-07-28T12:55:48;41.10;36.80
45843;DHT22;31563;51.744;8.252;2023-07-28T12:58:20;41.00;36.00
45843;DHT22;31563;51.744;8.252;2023-07-28T13:00:51;40.80;37.30
45843;DHT22;31563;51.744;8.252;2023-07-28T13:03:22;38.40;37.60
45843;DHT22;31563;51.744;8.252;2023-07-28T13:05:50;38.20;41.00
45843;DHT22;31563;51.744;8.252;2023-07-28T13:08:17;38.80;40.00
45843;DHT22;31563;51.744;8.252;2023-07-28T13:11:05;39.10;37.50
45843;DHT22;31563;51.744;8.252;2023-07-28T13:13:37;39.10;38.70
45843;DHT22;31563;51.744;8.252;2023-07-28T13:16:05;39.00;37.70
45843;DHT22;31563;51.744;8.252;2023-07-28T13:18:37;37.60;38.20
45843;DHT22;31563;51.744;8.252;2023-07-28T13:21:06;36.40;39.80
45843;DHT22;31563;51.744;8.252;2023-07-28T13:23:33;37.60;39.30
45843;DHT22;31563;51.744;8.252;2023-07-28T13:26:01;38.40;37.80
45843;DHT22;31563;51.744;8.252;2023-07-28T13:28:30;38.60;36.70
45843;DHT22;31563;51.744;8.252;2023-07-28T13:31:00;38.30;37.60
45843;DHT22;31563;51.744;8.252;2023-07-28T13:33:28;38.40;37.70
45843;DHT22;31563;51.744;8.252;2023-07-28T13:35:56;38.50;37.50
45843;DHT22;31563;51.744;8.252;2023-07-28T13:38:23;38.60;37.30
45843;DHT22;31563;51.744;8.252;2023-07-28T13:40:51;38.40;37.50
45843;DHT22;31563;51.744;8.252;2023-07-28T13:43:19;37.70;37.90
45843;DHT22;31563;51.744;8.252;2023-07-28T13:45:47;37.50;38.80
45843;DHT22;31563;51.744;8.252;2023-07-28T13:48:16;37.60;38.90
45843;DHT22;31563;51.744;8.252;2023-07-28T13:50:47;37.60;39.00
45843;DHT22;31563;51.744;8.252;2023-07-28T13:53:17;36.90;39.30
45843;DHT22;31563;51.744;8.252;2023-07-28T13:55:48;35.60;40.80
45843;DHT22;31563;51.744;8.252;2023-07-28T13:58:23;35.80;41.50
45843;DHT22;31563;51.744;8.252;2023-07-28T14:00:51;35.40;41.70
45843;DHT22;31563;51.744;8.252;2023-07-28T14:03:20;35.60;42.10
45843;DHT22;31563;51.744;8.252;2023-07-28T14:05:48;35.40;41.60
45843;DHT22;31563;51.744;8.252;2023-07-28T14:08:16;35.20;42.20
45843;DHT22;31563;51.744;8.252;2023-07-28T14:10:44;34.90;43.00
45843;DHT22;31563;51.744;8.252;2023-07-28T14:13:11;34.90;43.30
45843;DHT22;31563;51.744;8.252;2023-07-28T14:15:39;35.80;42.10
45843;DHT22;31563;51.744;8.252;2023-07-28T14:18:07;35.60;41.80
45843;DHT22;31563;51.744;8.252;2023-07-28T14:20:37;35.20;42.00
45843;DHT22;31563;51.744;8.252;2023-07-28T14:23:19;34.80;42.00
45843;DHT22;31563;51.744;8.252;2023-07-28T14:25:47;34.10;43.50
45843;DHT22;31563;51.744;8.252;2023-07-28T14:28:16;33.90;44.40
45843;DHT22;31563;51.744;8.252;2023-07-28T14:30:44;34.30;43.40
45843;DHT22;31563;51.744;8.252;2023-07-28T14:33:13;34.10;43.00
45843;DHT22;31563;51.744;8.252;2023-07-28T14:35:43;34.00;43.20
45843;DHT22;31563;51.744;8.252;2023-07-28T14:38:11;34.50;43.00
45843;DHT22;31563;51.744;8.252;2023-07-28T14:40:39;34.60;42.40
45843;DHT22;31563;51.744;8.252;2023-07-28T14:43:07;34.50;42.90
45843;DHT22;31563;51.744;8.252;2023-07-28T14:45:35;34.30;43.30
45843;DHT22;31563;51.744;8.252;2023-07-28T14:48:03;34.20;42.80
45843;DHT22;31563;51.744;8.252;2023-07-28T14:50:30;34.20;43.90
45843;DHT22;31563;51.744;8.252;2023-07-28T14:53:00;34.80;42.80
45843;DHT22;31563;51.744;8.252;2023-07-28T14:55:28;35.10;42.20
45843;DHT22;31563;51.744;8.252;2023-07-28T14:57:56;35.20;41.70
45843;DHT22;31563;51.744;8.252;2023-07-28T15:00:23;35.30;41.80
45843;DHT22;31563;51.744;8.252;2023-07-28T15:02:51;35.40;41.60
45843;DHT22;31563;51.744;8.252;2023-07-28T15:05:19;35.50;41.60
45843;DHT22;31563;51.744;8.252;2023-07-28T15:07:47;35.40;41.70
45843;DHT22;31563;51.744;8.252;2023-07-28T15:10:16;35.50;41.70
45843;DHT22;31563;51.744;8.252;2023-07-28T15:12:44;35.50;41.70
45843;DHT22;31563;51.744;8.252;2023-07-28T15:15:12;35.70;41.50
45843;DHT22;31563;51.744;8.252;2023-07-28T15:17:39;35.60;41.30
45843;DHT22;31563;51.744;8.252;2023-07-28T15:20:08;35.70;41.30
45843;DHT22;31563;51.744;8.252;2023-07-28T15:22:35;35.90;41.10
45843;DHT22;31563;51.744;8.252;2023-07-28T15:25:04;35.70;41.10
45843;DHT22;31563;51.744;8.252;2023-07-28T15:27:34;36.10;41.50
45843;DHT22;31563;51.744;8.252;2023-07-28T15:30:01;36.00;41.20
45843;DHT22;31563;51.744;8.252;2023-07-28T15:32:29;35.80;41.30
45843;DHT22;31563;51.744;8.252;2023-07-28T15:34:57;35.90;41.30
45843;DHT22;31563;51.744;8.252;2023-07-28T15:37:25;36.10;41.10
45843;DHT22;31563;51.744;8.252;2023-07-28T15:39:53;35.80;40.20
45843;DHT22;31563;51.744;8.252;2023-07-28T15:42:21;35.60;40.50